Decoded Metar for KPHF (NEWPORT NEWS in VA, USA) (IATA:PHF) | Meteo·Mobile Aviation Weather
aviador You're here:

KPHF Decoded Metar

NEWPORT NEWS in VA, USA
Report Time2018-11-19 01:35:00
UTC Time2018-11-19 01:44:36
Flight Rules lifr LIFR
WindCalm
Visibility1207 m
Phenomena:Mist
Clouds:N/A
Expected CloudBase > 400 ft AGL from Temp-Dew spread
Ceiling400 ft
Temp06°C (ISA -9)
Dew Point05°C (93% RH)
AAT4.9°C
QNH1024 hPa
Density Alt-1,293 ft
Elevation39 ft
Report Wrong Elevation
Raw Report
KPHF 190135Z 00000KT 3/4SM BR VV004 06/05 A3023 RMK AO2
T00560050=

Extra information for KPHF:More info

Metar Taf Metar & Taf Last 4 Metars F.Rules Stats Wind Profile Meteogram Temp Stats Airport Information Weather charts Add Link Nearby VenuesMetar ALERT Operation Metar Decoded Social comments

AIRNAV info for KPHF